EDDR/SCN METAR and TAF weather

Enter ICAO airport designator
Station Type Date Time Source
EDDR METAR 2023/01/29 18:50 UTC NOAA

EDDR 291850Z AUTO 26006KT CAVOK M02/M04 Q1026 NOSIG


Station Type Date Time Source
EDDR Decoded METAR 2023/01/29 18:50 UTC NOAA

Saarbruecken / Ensheim, Germany (EDDR) 49-13N 007-07E 320M
Jan 29, 2023 - 01:50 PM EST / 2023.01.29 1850 UTC
Wind: from the W (260 degrees) at 7 MPH (6 KT):0
Visibility: greater than 7 mile(s):0
Temperature: 28 F (-2 C)
Windchill: 21 F (-6 C):1
Dew Point: 24 F (-4 C)
Relative Humidity: 86%
Pressure (altimeter): 30.30 in. Hg (1026 hPa)
ob: EDDR 291850Z AUTO 26006KT CAVOK M02/M04 Q1026 NOSIG
cycle: 19

Station Type Date Time Source
EDDR TAF 2023/01/29 18:27 UTC NOAA

TAF EDDR 291700Z 2918/3018 24007KT 9999 BKN020
BECMG 3000/3003 23013KT BKN012
BECMG 3003/3005 OVC005
TEMPO 3003/3010 3000 -SG OVC004 PROB30
TEMPO 3007/3010 -FZDZ
TEMPO 3007/3012 24015G25KT
TEMPO 3010/3014 1200 -DZ BKN003
BECMG 3014/3016 SCT004 BKN012

Example: see airport list